sensor_id;sensor_type;location;lat;lon;timestamp;P1;durP1;ratioP1;P2;durP2;ratioP2
76433;SDS011;65265;53.200;6.080;2022-11-30T00:02:20;0.45;;;0.40;;
76433;SDS011;65265;53.200;6.080;2022-11-30T00:04:47;0.30;;;0.30;;
76433;SDS011;65265;53.200;6.080;2022-11-30T00:07:14;0.25;;;0.25;;
76433;SDS011;65265;53.200;6.080;2022-11-30T00:09:41;0.20;;;0.20;;
76433;SDS011;65265;53.200;6.080;2022-11-30T00:12:08;0.30;;;0.30;;
76433;SDS011;65265;53.200;6.080;2022-11-30T00:14:35;0.38;;;0.38;;
76433;SDS011;65265;53.200;6.080;2022-11-30T00:17:01;0.30;;;0.30;;
76433;SDS011;65265;53.200;6.080;2022-11-30T00:19:28;0.30;;;0.30;;
76433;SDS011;65265;53.200;6.080;2022-11-30T00:21:54;0.10;;;0.10;;
76433;SDS011;65265;53.200;6.080;2022-11-30T00:24:22;0.20;;;0.20;;
76433;SDS011;65265;53.200;6.080;2022-11-30T00:26:49;0.25;;;0.25;;
76433;SDS011;65265;53.200;6.080;2022-11-30T00:29:15;0.28;;;0.28;;
76433;SDS011;65265;53.200;6.080;2022-11-30T00:31:42;0.22;;;0.22;;
76433;SDS011;65265;53.200;6.080;2022-11-30T00:34:08;0.20;;;0.20;;
76433;SDS011;65265;53.200;6.080;2022-11-30T00:36:35;0.20;;;0.20;;
76433;SDS011;65265;53.200;6.080;2022-11-30T00:39:03;0.40;;;0.40;;
76433;SDS011;65265;53.200;6.080;2022-11-30T00:41:32;0.32;;;0.32;;
76433;SDS011;65265;53.200;6.080;2022-11-30T00:43:59;0.30;;;0.30;;
76433;SDS011;65265;53.200;6.080;2022-11-30T00:46:25;0.30;;;0.30;;
76433;SDS011;65265;53.200;6.080;2022-11-30T00:48:52;0.28;;;0.28;;
76433;SDS011;65265;53.200;6.080;2022-11-30T00:51:18;0.30;;;0.30;;
76433;SDS011;65265;53.200;6.080;2022-11-30T00:53:45;0.30;;;0.30;;
76433;SDS011;65265;53.200;6.080;2022-11-30T00:56:12;0.30;;;0.30;;
76433;SDS011;65265;53.200;6.080;2022-11-30T00:58:40;0.40;;;0.40;;
76433;SDS011;65265;53.200;6.080;2022-11-30T01:01:07;0.30;;;0.30;;
76433;SDS011;65265;53.200;6.080;2022-11-30T01:03:34;0.32;;;0.30;;
76433;SDS011;65265;53.200;6.080;2022-11-30T01:06:02;0.30;;;0.30;;
76433;SDS011;65265;53.200;6.080;2022-11-30T01:08:29;0.30;;;0.30;;
76433;SDS011;65265;53.200;6.080;2022-11-30T01:11:02;0.30;;;0.30;;
76433;SDS011;65265;53.200;6.080;2022-11-30T01:13:31;0.30;;;0.30;;
76433;SDS011;65265;53.200;6.080;2022-11-30T01:15:59;0.30;;;0.30;;
76433;SDS011;65265;53.200;6.080;2022-11-30T01:18:25;0.60;;;0.50;;
76433;SDS011;65265;53.200;6.080;2022-11-30T01:20:52;0.30;;;0.30;;
76433;SDS011;65265;53.200;6.080;2022-11-30T01:23:19;0.30;;;0.30;;
76433;SDS011;65265;53.200;6.080;2022-11-30T01:25:51;0.30;;;0.30;;
76433;SDS011;65265;53.200;6.080;2022-11-30T01:28:19;0.30;;;0.30;;
76433;SDS011;65265;53.200;6.080;2022-11-30T01:30:54;0.30;;;0.30;;
76433;SDS011;65265;53.200;6.080;2022-11-30T01:33:22;0.30;;;0.30;;
76433;SDS011;65265;53.200;6.080;2022-11-30T01:35:56;0.40;;;0.40;;
76433;SDS011;65265;53.200;6.080;2022-11-30T01:38:24;0.30;;;0.30;;
76433;SDS011;65265;53.200;6.080;2022-11-30T01:40:51;0.20;;;0.20;;
76433;SDS011;65265;53.200;6.080;2022-11-30T01:43:18;0.25;;;0.25;;
76433;SDS011;65265;53.200;6.080;2022-11-30T01:45:46;0.20;;;0.20;;
76433;SDS011;65265;53.200;6.080;2022-11-30T01:48:13;0.38;;;0.38;;
76433;SDS011;65265;53.200;6.080;2022-11-30T01:50:42;0.30;;;0.30;;
76433;SDS011;65265;53.200;6.080;2022-11-30T01:53:10;0.40;;;0.40;;
76433;SDS011;65265;53.200;6.080;2022-11-30T01:55:38;0.32;;;0.32;;
76433;SDS011;65265;53.200;6.080;2022-11-30T01:58:08;0.30;;;0.30;;
76433;SDS011;65265;53.200;6.080;2022-11-30T02:00:37;0.30;;;0.30;;
76433;SDS011;65265;53.200;6.080;2022-11-30T02:03:06;0.30;;;0.30;;
76433;SDS011;65265;53.200;6.080;2022-11-30T02:05:37;0.30;;;0.30;;
76433;SDS011;65265;53.200;6.080;2022-11-30T02:08:08;0.32;;;0.32;;
76433;SDS011;65265;53.200;6.080;2022-11-30T02:10:37;0.43;;;0.40;;
76433;SDS011;65265;53.200;6.080;2022-11-30T02:13:17;0.30;;;0.30;;
76433;SDS011;65265;53.200;6.080;2022-11-30T02:15:54;0.35;;;0.35;;
76433;SDS011;65265;53.200;6.080;2022-11-30T02:18:29;0.35;;;0.35;;
76433;SDS011;65265;53.200;6.080;2022-11-30T02:21:04;0.20;;;0.20;;
76433;SDS011;65265;53.200;6.080;2022-11-30T02:23:49;0.20;;;0.20;;
76433;SDS011;65265;53.200;6.080;2022-11-30T02:26:45;0.30;;;0.30;;
76433;SDS011;65265;53.200;6.080;2022-11-30T02:29:22;0.40;;;0.40;;
76433;SDS011;65265;53.200;6.080;2022-11-30T02:31:54;0.20;;;0.20;;
76433;SDS011;65265;53.200;6.080;2022-11-30T02:34:27;0.30;;;0.30;;
76433;SDS011;65265;53.200;6.080;2022-11-30T02:36:57;0.30;;;0.30;;
76433;SDS011;65265;53.200;6.080;2022-11-30T02:39:26;0.20;;;0.20;;
76433;SDS011;65265;53.200;6.080;2022-11-30T02:41:52;0.28;;;0.28;;
76433;SDS011;65265;53.200;6.080;2022-11-30T02:44:19;0.40;;;0.40;;
76433;SDS011;65265;53.200;6.080;2022-11-30T02:46:52;0.30;;;0.30;;
76433;SDS011;65265;53.200;6.080;2022-11-30T02:49:28;0.20;;;0.20;;
76433;SDS011;65265;53.200;6.080;2022-11-30T02:51:59;0.20;;;0.20;;
76433;SDS011;65265;53.200;6.080;2022-11-30T02:54:27;0.15;;;0.15;;
76433;SDS011;65265;53.200;6.080;2022-11-30T02:56:54;0.30;;;0.30;;
76433;SDS011;65265;53.200;6.080;2022-11-30T02:59:22;0.20;;;0.20;;
76433;SDS011;65265;53.200;6.080;2022-11-30T03:01:48;0.30;;;0.30;;
76433;SDS011;65265;53.200;6.080;2022-11-30T03:04:15;0.20;;;0.20;;
76433;SDS011;65265;53.200;6.080;2022-11-30T03:06:42;0.30;;;0.30;;
76433;SDS011;65265;53.200;6.080;2022-11-30T03:09:08;0.30;;;0.30;;
76433;SDS011;65265;53.200;6.080;2022-11-30T03:11:35;0.30;;;0.30;;
76433;SDS011;65265;53.200;6.080;2022-11-30T03:14:01;0.30;;;0.30;;
76433;SDS011;65265;53.200;6.080;2022-11-30T03:16:30;0.20;;;0.20;;
76433;SDS011;65265;53.200;6.080;2022-11-30T03:18:57;0.30;;;0.30;;
76433;SDS011;65265;53.200;6.080;2022-11-30T03:21:24;0.30;;;0.30;;
76433;SDS011;65265;53.200;6.080;2022-11-30T03:23:50;0.30;;;0.30;;
76433;SDS011;65265;53.200;6.080;2022-11-30T03:26:17;0.30;;;0.30;;
76433;SDS011;65265;53.200;6.080;2022-11-30T03:28:44;0.28;;;0.28;;
76433;SDS011;65265;53.200;6.080;2022-11-30T03:31:10;0.20;;;0.20;;
76433;SDS011;65265;53.200;6.080;2022-11-30T03:33:40;0.30;;;0.30;;
76433;SDS011;65265;53.200;6.080;2022-11-30T03:36:08;0.30;;;0.30;;
76433;SDS011;65265;53.200;6.080;2022-11-30T03:38:36;0.30;;;0.30;;
76433;SDS011;65265;53.200;6.080;2022-11-30T03:41:04;0.30;;;0.30;;
76433;SDS011;65265;53.200;6.080;2022-11-30T03:43:31;0.25;;;0.25;;
76433;SDS011;65265;53.200;6.080;2022-11-30T03:45:58;0.30;;;0.30;;
76433;SDS011;65265;53.200;6.080;2022-11-30T03:48:25;0.22;;;0.22;;
76433;SDS011;65265;53.200;6.080;2022-11-30T03:50:53;0.40;;;0.40;;
76433;SDS011;65265;53.200;6.080;2022-11-30T03:53:20;0.30;;;0.30;;
76433;SDS011;65265;53.200;6.080;2022-11-30T03:55:50;0.30;;;0.30;;
76433;SDS011;65265;53.200;6.080;2022-11-30T03:58:17;0.28;;;0.28;;
76433;SDS011;65265;53.200;6.080;2022-11-30T04:00:44;0.20;;;0.20;;
76433;SDS011;65265;53.200;6.080;2022-11-30T04:03:10;0.10;;;0.10;;
76433;SDS011;65265;53.200;6.080;2022-11-30T04:05:37;0.63;;;0.63;;
76433;SDS011;65265;53.200;6.080;2022-11-30T04:08:06;0.25;;;0.25;;
76433;SDS011;65265;53.200;6.080;2022-11-30T04:10:32;0.30;;;0.30;;
76433;SDS011;65265;53.200;6.080;2022-11-30T04:12:58;0.30;;;0.30;;
76433;SDS011;65265;53.200;6.080;2022-11-30T04:15:25;0.20;;;0.20;;
76433;SDS011;65265;53.200;6.080;2022-11-30T04:17:52;0.30;;;0.30;;
76433;SDS011;65265;53.200;6.080;2022-11-30T04:20:18;0.20;;;0.20;;
76433;SDS011;65265;53.200;6.080;2022-11-30T04:22:45;0.38;;;0.38;;
76433;SDS011;65265;53.200;6.080;2022-11-30T04:25:13;0.22;;;0.22;;
76433;SDS011;65265;53.200;6.080;2022-11-30T04:27:40;0.20;;;0.20;;
76433;SDS011;65265;53.200;6.080;2022-11-30T04:30:06;0.20;;;0.20;;
76433;SDS011;65265;53.200;6.080;2022-11-30T04:32:34;0.30;;;0.30;;
76433;SDS011;65265;53.200;6.080;2022-11-30T04:35:01;0.30;;;0.30;;
76433;SDS011;65265;53.200;6.080;2022-11-30T04:37:27;0.22;;;0.22;;
76433;SDS011;65265;53.200;6.080;2022-11-30T04:39:54;0.40;;;0.40;;
76433;SDS011;65265;53.200;6.080;2022-11-30T04:42:22;0.30;;;0.30;;
76433;SDS011;65265;53.200;6.080;2022-11-30T04:44:48;0.20;;;0.20;;
76433;SDS011;65265;53.200;6.080;2022-11-30T04:47:15;0.22;;;0.22;;
76433;SDS011;65265;53.200;6.080;2022-11-30T04:49:42;0.30;;;0.30;;
76433;SDS011;65265;53.200;6.080;2022-11-30T04:52:09;0.32;;;0.32;;
76433;SDS011;65265;53.200;6.080;2022-11-30T04:54:35;0.20;;;0.20;;
76433;SDS011;65265;53.200;6.080;2022-11-30T04:57:02;0.30;;;0.30;;
76433;SDS011;65265;53.200;6.080;2022-11-30T04:59:32;0.30;;;0.30;;
76433;SDS011;65265;53.200;6.080;2022-11-30T05:01:58;0.20;;;0.20;;
76433;SDS011;65265;53.200;6.080;2022-11-30T05:04:25;0.25;;;0.25;;
76433;SDS011;65265;53.200;6.080;2022-11-30T05:06:51;0.20;;;0.20;;
76433;SDS011;65265;53.200;6.080;2022-11-30T05:09:18;0.50;;;0.50;;
76433;SDS011;65265;53.200;6.080;2022-11-30T05:11:45;0.20;;;0.20;;
76433;SDS011;65265;53.200;6.080;2022-11-30T05:14:12;0.20;;;0.20;;
76433;SDS011;65265;53.200;6.080;2022-11-30T05:16:40;0.30;;;0.30;;
76433;SDS011;65265;53.200;6.080;2022-11-30T05:19:07;0.20;;;0.20;;
76433;SDS011;65265;53.200;6.080;2022-11-30T05:21:34;0.10;;;0.10;;
76433;SDS011;65265;53.200;6.080;2022-11-30T05:24:00;0.20;;;0.20;;
76433;SDS011;65265;53.200;6.080;2022-11-30T05:26:27;0.20;;;0.20;;
76433;SDS011;65265;53.200;6.080;2022-11-30T05:28:54;0.30;;;0.30;;
76433;SDS011;65265;53.200;6.080;2022-11-30T05:31:20;0.35;;;0.35;;
76433;SDS011;65265;53.200;6.080;2022-11-30T05:33:50;0.30;;;0.30;;
76433;SDS011;65265;53.200;6.080;2022-11-30T05:36:16;0.30;;;0.30;;
76433;SDS011;65265;53.200;6.080;2022-11-30T05:38:43;0.32;;;0.32;;
76433;SDS011;65265;53.200;6.080;2022-11-30T05:41:10;0.20;;;0.20;;
76433;SDS011;65265;53.200;6.080;2022-11-30T05:43:37;0.20;;;0.20;;
76433;SDS011;65265;53.200;6.080;2022-11-30T05:46:04;0.30;;;0.30;;
76433;SDS011;65265;53.200;6.080;2022-11-30T05:48:33;0.22;;;0.22;;
76433;SDS011;65265;53.200;6.080;2022-11-30T05:51:05;0.30;;;0.30;;
76433;SDS011;65265;53.200;6.080;2022-11-30T05:53:32;0.60;;;0.60;;
76433;SDS011;65265;53.200;6.080;2022-11-30T05:56:00;0.30;;;0.30;;
76433;SDS011;65265;53.200;6.080;2022-11-30T05:58:27;0.17;;;0.17;;
76433;SDS011;65265;53.200;6.080;2022-11-30T06:00:53;0.35;;;0.35;;
76433;SDS011;65265;53.200;6.080;2022-11-30T06:03:20;0.30;;;0.30;;
76433;SDS011;65265;53.200;6.080;2022-11-30T06:05:48;0.20;;;0.20;;
76433;SDS011;65265;53.200;6.080;2022-11-30T06:08:16;0.30;;;0.30;;
76433;SDS011;65265;53.200;6.080;2022-11-30T06:10:43;0.28;;;0.28;;
76433;SDS011;65265;53.200;6.080;2022-11-30T06:13:10;0.50;;;0.50;;
76433;SDS011;65265;53.200;6.080;2022-11-30T06:15:37;0.30;;;0.30;;
76433;SDS011;65265;53.200;6.080;2022-11-30T06:18:05;0.40;;;0.40;;
76433;SDS011;65265;53.200;6.080;2022-11-30T06:20:32;0.25;;;0.25;;
76433;SDS011;65265;53.200;6.080;2022-11-30T06:23:00;0.20;;;0.20;;
76433;SDS011;65265;53.200;6.080;2022-11-30T06:25:27;0.20;;;0.20;;
76433;SDS011;65265;53.200;6.080;2022-11-30T06:27:55;0.20;;;0.20;;
76433;SDS011;65265;53.200;6.080;2022-11-30T06:30:21;0.20;;;0.20;;
76433;SDS011;65265;53.200;6.080;2022-11-30T06:32:49;0.43;;;0.43;;
76433;SDS011;65265;53.200;6.080;2022-11-30T06:35:17;0.20;;;0.20;;
76433;SDS011;65265;53.200;6.080;2022-11-30T06:37:44;0.22;;;0.22;;
76433;SDS011;65265;53.200;6.080;2022-11-30T06:40:11;0.20;;;0.20;;
76433;SDS011;65265;53.200;6.080;2022-11-30T06:42:40;0.20;;;0.20;;
76433;SDS011;65265;53.200;6.080;2022-11-30T06:45:07;0.30;;;0.30;;
76433;SDS011;65265;53.200;6.080;2022-11-30T06:47:34;0.32;;;0.32;;
76433;SDS011;65265;53.200;6.080;2022-11-30T06:50:01;0.28;;;0.28;;
76433;SDS011;65265;53.200;6.080;2022-11-30T06:52:29;0.32;;;0.32;;
76433;SDS011;65265;53.200;6.080;2022-11-30T06:54:55;0.17;;;0.17;;
76433;SDS011;65265;53.200;6.080;2022-11-30T06:57:24;0.10;;;0.10;;
76433;SDS011;65265;53.200;6.080;2022-11-30T06:59:53;0.30;;;0.30;;
76433;SDS011;65265;53.200;6.080;2022-11-30T07:02:19;0.30;;;0.30;;
76433;SDS011;65265;53.200;6.080;2022-11-30T07:04:46;0.20;;;0.20;;
76433;SDS011;65265;53.200;6.080;2022-11-30T07:07:14;0.22;;;0.22;;
76433;SDS011;65265;53.200;6.080;2022-11-30T07:09:40;0.30;;;0.30;;
76433;SDS011;65265;53.200;6.080;2022-11-30T07:12:07;0.45;;;0.45;;
76433;SDS011;65265;53.200;6.080;2022-11-30T07:14:33;0.30;;;0.30;;
76433;SDS011;65265;53.200;6.080;2022-11-30T07:17:01;0.30;;;0.30;;
76433;SDS011;65265;53.200;6.080;2022-11-30T07:19:29;0.30;;;0.30;;
76433;SDS011;65265;53.200;6.080;2022-11-30T07:21:56;0.22;;;0.22;;
76433;SDS011;65265;53.200;6.080;2022-11-30T07:24:23;0.15;;;0.15;;
76433;SDS011;65265;53.200;6.080;2022-11-30T07:27:07;0.20;;;0.20;;
76433;SDS011;65265;53.200;6.080;2022-11-30T07:29:34;0.30;;;0.30;;
76433;SDS011;65265;53.200;6.080;2022-11-30T07:32:02;0.30;;;0.30;;
76433;SDS011;65265;53.200;6.080;2022-11-30T07:34:29;0.55;;;0.52;;
76433;SDS011;65265;53.200;6.080;2022-11-30T07:36:55;0.40;;;0.40;;
76433;SDS011;65265;53.200;6.080;2022-11-30T07:39:22;0.43;;;0.43;;
76433;SDS011;65265;53.200;6.080;2022-11-30T07:41:49;0.40;;;0.32;;
76433;SDS011;65265;53.200;6.080;2022-11-30T07:44:16;0.82;;;0.60;;
76433;SDS011;65265;53.200;6.080;2022-11-30T07:46:42;0.40;;;0.40;;
76433;SDS011;65265;53.200;6.080;2022-11-30T07:49:11;0.40;;;0.40;;
76433;SDS011;65265;53.200;6.080;2022-11-30T07:51:37;0.40;;;0.40;;
76433;SDS011;65265;53.200;6.080;2022-11-30T07:54:04;0.10;;;0.10;;
76433;SDS011;65265;53.200;6.080;2022-11-30T07:56:31;0.32;;;0.30;;
76433;SDS011;65265;53.200;6.080;2022-11-30T07:58:58;0.40;;;0.40;;
76433;SDS011;65265;53.200;6.080;2022-11-30T08:01:27;0.80;;;0.52;;
76433;SDS011;65265;53.200;6.080;2022-11-30T08:03:55;0.85;;;0.52;;
76433;SDS011;65265;53.200;6.080;2022-11-30T08:06:24;0.95;;;0.60;;
76433;SDS011;65265;53.200;6.080;2022-11-30T08:08:52;0.80;;;0.70;;
76433;SDS011;65265;53.200;6.080;2022-11-30T08:11:20;0.40;;;0.40;;
76433;SDS011;65265;53.200;6.080;2022-11-30T08:13:49;0.30;;;0.30;;
76433;SDS011;65265;53.200;6.080;2022-11-30T08:16:17;0.40;;;0.40;;
76433;SDS011;65265;53.200;6.080;2022-11-30T08:18:45;0.30;;;0.30;;
76433;SDS011;65265;53.200;6.080;2022-11-30T08:21:13;0.32;;;0.32;;
76433;SDS011;65265;53.200;6.080;2022-11-30T08:23:43;0.40;;;0.40;;
76433;SDS011;65265;53.200;6.080;2022-11-30T08:26:12;0.30;;;0.30;;
76433;SDS011;65265;53.200;6.080;2022-11-30T08:28:40;0.50;;;0.40;;
76433;SDS011;65265;53.200;6.080;2022-11-30T08:31:08;1.10;;;0.90;;
76433;SDS011;65265;53.200;6.080;2022-11-30T08:33:36;0.93;;;0.60;;
76433;SDS011;65265;53.200;6.080;2022-11-30T08:36:07;1.45;;;0.90;;
76433;SDS011;65265;53.200;6.080;2022-11-30T08:38:35;1.80;;;1.20;;
76433;SDS011;65265;53.200;6.080;2022-11-30T08:41:04;1.80;;;1.20;;
76433;SDS011;65265;53.200;6.080;2022-11-30T08:43:31;1.77;;;1.02;;
76433;SDS011;65265;53.200;6.080;2022-11-30T08:46:00;1.38;;;0.80;;
76433;SDS011;65265;53.200;6.080;2022-11-30T08:48:28;1.40;;;0.85;;
76433;SDS011;65265;53.200;6.080;2022-11-30T08:50:57;1.00;;;0.70;;
76433;SDS011;65265;53.200;6.080;2022-11-30T08:53:24;1.02;;;0.80;;
76433;SDS011;65265;53.200;6.080;2022-11-30T08:55:54;0.68;;;0.60;;
76433;SDS011;65265;53.200;6.080;2022-11-30T09:00:50;0.45;;;0.45;;
76433;SDS011;65265;53.200;6.080;2022-11-30T09:03:17;0.50;;;0.50;;
76433;SDS011;65265;53.200;6.080;2022-11-30T09:05:44;0.43;;;0.43;;
76433;SDS011;65265;53.200;6.080;2022-11-30T09:08:11;0.30;;;0.30;;
76433;SDS011;65265;53.200;6.080;2022-11-30T09:10:37;0.35;;;0.35;;
76433;SDS011;65265;53.200;6.080;2022-11-30T09:13:04;0.38;;;0.38;;
76433;SDS011;65265;53.200;6.080;2022-11-30T09:15:32;0.90;;;0.60;;
76433;SDS011;65265;53.200;6.080;2022-11-30T09:17:59;0.47;;;0.40;;
76433;SDS011;65265;53.200;6.080;2022-11-30T09:20:25;0.63;;;0.50;;
76433;SDS011;65265;53.200;6.080;2022-11-30T09:22:52;0.85;;;0.60;;
76433;SDS011;65265;53.200;6.080;2022-11-30T09:25:18;1.02;;;0.70;;
76433;SDS011;65265;53.200;6.080;2022-11-30T09:27:45;0.70;;;0.60;;
76433;SDS011;65265;53.200;6.080;2022-11-30T09:30:12;0.50;;;0.50;;
76433;SDS011;65265;53.200;6.080;2022-11-30T09:32:40;0.30;;;0.30;;
76433;SDS011;65265;53.200;6.080;2022-11-30T09:35:07;0.35;;;0.35;;
76433;SDS011;65265;53.200;6.080;2022-11-30T09:37:34;0.60;;;0.50;;
76433;SDS011;65265;53.200;6.080;2022-11-30T09:40:00;0.40;;;0.40;;
76433;SDS011;65265;53.200;6.080;2022-11-30T09:42:31;0.43;;;0.40;;
76433;SDS011;65265;53.200;6.080;2022-11-30T09:45:10;0.30;;;0.30;;
76433;SDS011;65265;53.200;6.080;2022-11-30T09:47:51;0.30;;;0.30;;
76433;SDS011;65265;53.200;6.080;2022-11-30T09:50:28;0.40;;;0.38;;
76433;SDS011;65265;53.200;6.080;2022-11-30T09:53:02;0.40;;;0.40;;
76433;SDS011;65265;53.200;6.080;2022-11-30T09:55:32;0.40;;;0.40;;
76433;SDS011;65265;53.200;6.080;2022-11-30T09:58:04;0.30;;;0.30;;
76433;SDS011;65265;53.200;6.080;2022-11-30T10:00:32;0.30;;;0.30;;
76433;SDS011;65265;53.200;6.080;2022-11-30T10:03:04;0.30;;;0.30;;
76433;SDS011;65265;53.200;6.080;2022-11-30T10:05:38;0.55;;;0.47;;
76433;SDS011;65265;53.200;6.080;2022-11-30T10:08:15;0.50;;;0.43;;
76433;SDS011;65265;53.200;6.080;2022-11-30T10:10:50;0.25;;;0.25;;
76433;SDS011;65265;53.200;6.080;2022-11-30T10:13:32;0.30;;;0.30;;
76433;SDS011;65265;53.200;6.080;2022-11-30T10:16:14;0.30;;;0.30;;
76433;SDS011;65265;53.200;6.080;2022-11-30T10:18:56;0.30;;;0.30;;
76433;SDS011;65265;53.200;6.080;2022-11-30T10:21:40;0.30;;;0.30;;
76433;SDS011;65265;53.200;6.080;2022-11-30T10:24:19;0.30;;;0.30;;
76433;SDS011;65265;53.200;6.080;2022-11-30T10:26:56;0.28;;;0.28;;
76433;SDS011;65265;53.200;6.080;2022-11-30T10:29:28;0.30;;;0.30;;
76433;SDS011;65265;53.200;6.080;2022-11-30T10:31:59;0.30;;;0.30;;
76433;SDS011;65265;53.200;6.080;2022-11-30T10:34:36;0.32;;;0.32;;
76433;SDS011;65265;53.200;6.080;2022-11-30T10:37:03;0.32;;;0.32;;
76433;SDS011;65265;53.200;6.080;2022-11-30T10:39:39;0.30;;;0.30;;
76433;SDS011;65265;53.200;6.080;2022-11-30T10:42:11;0.40;;;0.40;;
76433;SDS011;65265;53.200;6.080;2022-11-30T10:44:45;0.20;;;0.20;;
76433;SDS011;65265;53.200;6.080;2022-11-30T10:47:21;0.50;;;0.45;;
76433;SDS011;65265;53.200;6.080;2022-11-30T10:52:20;0.43;;;0.43;;
76433;SDS011;65265;53.200;6.080;2022-11-30T10:54:51;0.30;;;0.30;;
76433;SDS011;65265;53.200;6.080;2022-11-30T10:57:20;0.40;;;0.40;;
76433;SDS011;65265;53.200;6.080;2022-11-30T10:59:49;0.52;;;0.43;;
76433;SDS011;65265;53.200;6.080;2022-11-30T11:02:38;1.10;;;0.80;;
76433;SDS011;65265;53.200;6.080;2022-11-30T11:07:52;1.00;;;0.60;;
76433;SDS011;65265;53.200;6.080;2022-11-30T11:10:22;1.35;;;0.80;;
76433;SDS011;65265;53.200;6.080;2022-11-30T11:12:55;1.30;;;0.73;;
76433;SDS011;65265;53.200;6.080;2022-11-30T11:15:23;0.82;;;0.63;;
76433;SDS011;65265;53.200;6.080;2022-11-30T11:17:51;1.02;;;0.68;;
76433;SDS011;65265;53.200;6.080;2022-11-30T11:20:31;1.17;;;0.70;;
76433;SDS011;65265;53.200;6.080;2022-11-30T11:22:59;1.33;;;0.93;;
76433;SDS011;65265;53.200;6.080;2022-11-30T11:25:30;0.82;;;0.60;;
76433;SDS011;65265;53.200;6.080;2022-11-30T11:28:00;0.95;;;0.70;;
76433;SDS011;65265;53.200;6.080;2022-11-30T11:30:32;1.20;;;0.70;;
76433;SDS011;65265;53.200;6.080;2022-11-30T11:33:01;1.20;;;0.70;;
76433;SDS011;65265;53.200;6.080;2022-11-30T11:35:36;1.10;;;0.73;;
76433;SDS011;65265;53.200;6.080;2022-11-30T11:38:15;1.52;;;0.90;;
76433;SDS011;65265;53.200;6.080;2022-11-30T11:40:51;1.20;;;0.70;;
76433;SDS011;65265;53.200;6.080;2022-11-30T11:43:20;1.13;;;0.90;;
76433;SDS011;65265;53.200;6.080;2022-11-30T11:45:50;1.02;;;0.68;;
76433;SDS011;65265;53.200;6.080;2022-11-30T11:51:06;1.20;;;0.68;;
76433;SDS011;65265;53.200;6.080;2022-11-30T11:53:36;0.70;;;0.60;;
76433;SDS011;65265;53.200;6.080;2022-11-30T11:56:08;1.50;;;0.88;;
76433;SDS011;65265;53.200;6.080;2022-11-30T11:58:39;1.13;;;0.80;;
76433;SDS011;65265;53.200;6.080;2022-11-30T12:01:11;0.95;;;0.70;;
76433;SDS011;65265;53.200;6.080;2022-11-30T12:03:49;1.38;;;0.80;;
76433;SDS011;65265;53.200;6.080;2022-11-30T12:06:25;1.10;;;0.70;;
76433;SDS011;65265;53.200;6.080;2022-11-30T12:08:53;0.93;;;0.60;;
76433;SDS011;65265;53.200;6.080;2022-11-30T12:11:25;1.08;;;0.70;;
76433;SDS011;65265;53.200;6.080;2022-11-30T12:13:58;1.05;;;0.70;;
76433;SDS011;65265;53.200;6.080;2022-11-30T12:16:34;0.95;;;0.70;;
76433;SDS011;65265;53.200;6.080;2022-11-30T12:19:07;1.05;;;0.70;;
76433;SDS011;65265;53.200;6.080;2022-11-30T12:21:46;1.08;;;0.70;;
76433;SDS011;65265;53.200;6.080;2022-11-30T12:24:23;0.80;;;0.80;;
76433;SDS011;65265;53.200;6.080;2022-11-30T12:27:01;0.93;;;0.80;;
76433;SDS011;65265;53.200;6.080;2022-11-30T12:29:37;1.00;;;0.70;;
76433;SDS011;65265;53.200;6.080;2022-11-30T12:32:19;0.80;;;0.50;;
76433;SDS011;65265;53.200;6.080;2022-11-30T12:35:00;0.80;;;0.60;;
76433;SDS011;65265;53.200;6.080;2022-11-30T12:37:42;0.93;;;0.60;;
76433;SDS011;65265;53.200;6.080;2022-11-30T12:40:25;1.15;;;0.70;;
76433;SDS011;65265;53.200;6.080;2022-11-30T12:43:00;1.02;;;0.75;;
76433;SDS011;65265;53.200;6.080;2022-11-30T12:45:36;1.20;;;0.80;;
76433;SDS011;65265;53.200;6.080;2022-11-30T12:48:08;1.00;;;0.68;;
76433;SDS011;65265;53.200;6.080;2022-11-30T12:50:48;0.77;;;0.60;;
76433;SDS011;65265;53.200;6.080;2022-11-30T12:53:35;1.30;;;0.90;;
76433;SDS011;65265;53.200;6.080;2022-11-30T12:56:08;0.77;;;0.52;;
76433;SDS011;65265;53.200;6.080;2022-11-30T12:58:48;1.20;;;0.70;;
76433;SDS011;65265;53.200;6.080;2022-11-30T13:01:31;0.80;;;0.60;;
76433;SDS011;65265;53.200;6.080;2022-11-30T13:04:08;0.93;;;0.70;;
76433;SDS011;65265;53.200;6.080;2022-11-30T13:06:44;1.20;;;0.80;;
76433;SDS011;65265;53.200;6.080;2022-11-30T13:09:17;0.88;;;0.70;;
76433;SDS011;65265;53.200;6.080;2022-11-30T13:11:51;0.93;;;0.68;;
76433;SDS011;65265;53.200;6.080;2022-11-30T13:14:22;1.38;;;0.80;;
76433;SDS011;65265;53.200;6.080;2022-11-30T13:16:55;1.27;;;0.80;;
76433;SDS011;65265;53.200;6.080;2022-11-30T13:19:35;1.30;;;0.80;;
76433;SDS011;65265;53.200;6.080;2022-11-30T13:22:11;1.15;;;0.70;;
76433;SDS011;65265;53.200;6.080;2022-11-30T13:24:46;1.10;;;0.70;;
76433;SDS011;65265;53.200;6.080;2022-11-30T13:27:20;0.95;;;0.77;;
76433;SDS011;65265;53.200;6.080;2022-11-30T13:30:01;1.17;;;0.70;;
76433;SDS011;65265;53.200;6.080;2022-11-30T13:32:40;1.27;;;0.80;;
76433;SDS011;65265;53.200;6.080;2022-11-30T13:38:12;1.10;;;0.63;;
76433;SDS011;65265;53.200;6.080;2022-11-30T13:40:42;1.02;;;0.73;;
76433;SDS011;65265;53.200;6.080;2022-11-30T13:43:18;0.70;;;0.70;;
76433;SDS011;65265;53.200;6.080;2022-11-30T13:45:47;0.88;;;0.60;;
76433;SDS011;65265;53.200;6.080;2022-11-30T13:48:15;0.93;;;0.63;;
76433;SDS011;65265;53.200;6.080;2022-11-30T13:50:45;0.95;;;0.70;;
76433;SDS011;65265;53.200;6.080;2022-11-30T13:55:56;0.82;;;0.60;;
76433;SDS011;65265;53.200;6.080;2022-11-30T13:58:25;1.10;;;0.80;;
76433;SDS011;65265;53.200;6.080;2022-11-30T14:04:19;0.73;;;0.60;;
76433;SDS011;65265;53.200;6.080;2022-11-30T14:06:48;0.95;;;0.70;;
76433;SDS011;65265;53.200;6.080;2022-11-30T14:09:18;0.55;;;0.55;;
76433;SDS011;65265;53.200;6.080;2022-11-30T14:15:29;0.90;;;0.63;;
76433;SDS011;65265;53.200;6.080;2022-11-30T14:18:36;0.75;;;0.57;;
76433;SDS011;65265;53.200;6.080;2022-11-30T14:23:57;0.73;;;0.52;;
76433;SDS011;65265;53.200;6.080;2022-11-30T14:26:27;0.93;;;0.63;;
76433;SDS011;65265;53.200;6.080;2022-11-30T14:31:50;0.73;;;0.60;;
76433;SDS011;65265;53.200;6.080;2022-11-30T14:34:22;1.05;;;0.70;;
76433;SDS011;65265;53.200;6.080;2022-11-30T14:36:52;0.95;;;0.70;;
76433;SDS011;65265;53.200;6.080;2022-11-30T14:39:22;0.98;;;0.70;;
76433;SDS011;65265;53.200;6.080;2022-11-30T14:41:50;0.95;;;0.73;;
76433;SDS011;65265;53.200;6.080;2022-11-30T14:44:17;0.60;;;0.50;;
76433;SDS011;65265;53.200;6.080;2022-11-30T14:46:44;0.73;;;0.60;;
76433;SDS011;65265;53.200;6.080;2022-11-30T14:49:14;0.88;;;0.77;;
76433;SDS011;65265;53.200;6.080;2022-11-30T14:51:43;0.90;;;0.63;;
76433;SDS011;65265;53.200;6.080;2022-11-30T14:54:15;1.05;;;0.75;;
76433;SDS011;65265;53.200;6.080;2022-11-30T14:56:50;0.90;;;0.68;;
76433;SDS011;65265;53.200;6.080;2022-11-30T14:59:30;1.05;;;0.73;;
76433;SDS011;65265;53.200;6.080;2022-11-30T15:02:10;0.75;;;0.60;;
76433;SDS011;65265;53.200;6.080;2022-11-30T15:04:45;0.65;;;0.50;;
76433;SDS011;65265;53.200;6.080;2022-11-30T15:07:13;1.02;;;0.85;;
76433;SDS011;65265;53.200;6.080;2022-11-30T15:09:42;0.95;;;0.65;;
76433;SDS011;65265;53.200;6.080;2022-11-30T15:12:14;1.20;;;0.80;;
76433;SDS011;65265;53.200;6.080;2022-11-30T15:17:29;0.98;;;0.73;;
76433;SDS011;65265;53.200;6.080;2022-11-30T15:19:57;1.05;;;0.75;;
76433;SDS011;65265;53.200;6.080;2022-11-30T15:22:24;0.95;;;0.70;;
76433;SDS011;65265;53.200;6.080;2022-11-30T15:24:58;1.10;;;0.75;;
76433;SDS011;65265;53.200;6.080;2022-11-30T15:27:26;1.35;;;0.80;;
76433;SDS011;65265;53.200;6.080;2022-11-30T15:29:54;1.15;;;0.80;;
76433;SDS011;65265;53.200;6.080;2022-11-30T15:32:23;1.00;;;0.80;;
76433;SDS011;65265;53.200;6.080;2022-11-30T15:34:51;1.27;;;0.80;;
76433;SDS011;65265;53.200;6.080;2022-11-30T15:37:25;1.17;;;0.75;;